Nassau, The Bahamas
Current Conditions -  °F | °C
As of 4:00 PM on Friday 24 Oct 2014 (Local Time) from MYNN Reporting Station
Light Rain Light Rain  
Wind Chill: 75°   Ceiling: 1000
Heat Index: 75°   Visibility: 6mi
Dew Point: 73°   Wind: 2mph
Humidity: 94%   Direction: NA
Pressure: 29.76"   Gusts: NA
Location:  25.06°N, 77.33°W
Report Text: MYNN 242000Z VRB02KT 9999 -RA BKN010 OVC070 24/23 A2976
Loading
Personal Weather Stations






























Interactive Weather Map New forecast layout! Learn more

10-Day Weather Forecast

Advertisements
Track Severe Weather on mobile